createdAt,value
2023-02-12T00:01:51.396Z,22.50
2023-02-12T00:04:19.243Z,24.20
2023-02-12T00:06:46.645Z,23.83
2023-02-12T00:09:14.588Z,25.50
2023-02-12T00:11:42.866Z,23.17
2023-02-12T00:14:10.629Z,24.20
2023-02-12T00:16:38.192Z,23.90
2023-02-12T00:19:05.797Z,24.47
2023-02-12T00:21:35.992Z,24.50
2023-02-12T00:24:03.619Z,24.73
2023-02-12T00:26:33.625Z,24.33
2023-02-12T00:29:03.891Z,22.77
2023-02-12T00:31:34.242Z,22.40
2023-02-12T00:34:02.954Z,24.97
2023-02-12T00:36:31.905Z,25.67
2023-02-12T00:39:01.454Z,25.43
2023-02-12T00:41:30.187Z,23.70
2023-02-12T00:43:57.960Z,25.20
2023-02-12T00:46:28.254Z,23.50
2023-02-12T00:48:57.900Z,24.10
2023-02-12T00:51:26.448Z,23.40
2023-02-12T00:53:54.491Z,22.10
2023-02-12T00:56:22.028Z,22.37
2023-02-12T00:58:51.275Z,22.83
2023-02-12T01:01:18.837Z,21.70
2023-02-12T01:03:48.417Z,22.03
2023-02-12T01:06:15.964Z,21.57
2023-02-12T01:08:46.196Z,23.33
2023-02-12T01:11:15.108Z,23.60
2023-02-12T01:13:43.342Z,23.53
2023-02-12T01:16:18.512Z,23.80
2023-02-12T01:18:48.960Z,24.77
2023-02-12T01:21:19.160Z,22.20
2023-02-12T01:23:48.838Z,22.50
2023-02-12T01:26:17.276Z,23.40
2023-02-12T01:28:46.103Z,23.83
2023-02-12T01:31:17.231Z,22.83
2023-02-12T01:33:54.479Z,22.73
2023-02-12T01:36:27.326Z,24.03
2023-02-12T01:38:54.899Z,26.03
2023-02-12T01:41:25.806Z,24.67
2023-02-12T01:44:13.288Z,22.90
2023-02-12T01:46:42.660Z,27.20
2023-02-12T01:49:18.329Z,25.60
2023-02-12T01:51:47.629Z,26.97
2023-02-12T01:54:16.420Z,25.20
2023-02-12T01:56:44.987Z,26.40
2023-02-12T01:59:15.434Z,27.37
2023-02-12T02:01:43.060Z,26.17
2023-02-12T02:04:13.190Z,23.87
2023-02-12T02:06:50.091Z,24.20
2023-02-12T02:09:19.194Z,24.47
2023-02-12T02:12:07.773Z,24.60
2023-02-12T02:14:36.695Z,24.67
2023-02-12T02:17:23.826Z,24.00
2023-02-12T02:19:52.812Z,22.80
2023-02-12T02:22:32.648Z,26.10
2023-02-12T02:25:22.886Z,23.40
2023-02-12T02:27:56.768Z,25.10
2023-02-12T02:30:33.572Z,26.30
2023-02-12T02:33:30.044Z,26.33
2023-02-12T02:35:59.539Z,25.30
2023-02-12T02:38:41.217Z,27.00
2023-02-12T02:41:19.295Z,26.70
2023-02-12T02:43:51.291Z,26.90
2023-02-12T02:46:24.158Z,27.37
2023-02-12T02:48:55.078Z,26.40
2023-02-12T02:51:24.590Z,27.60
2023-02-12T02:54:06.326Z,28.33
2023-02-12T02:56:38.323Z,24.47
2023-02-12T02:59:10.968Z,26.60
2023-02-12T03:01:43.269Z,27.47
2023-02-12T03:04:16.732Z,27.30
2023-02-12T03:06:47.378Z,26.70
2023-02-12T03:09:35.281Z,28.30
2023-02-12T03:12:05.809Z,29.60
2023-02-12T03:14:36.018Z,27.43
2023-02-12T03:17:23.705Z,27.93
2023-02-12T03:19:58.088Z,25.87
2023-02-12T03:22:38.887Z,25.73
2023-02-12T03:25:09.700Z,27.03
2023-02-12T03:28:01.344Z,27.03
2023-02-12T03:30:41.092Z,31.37
2023-02-12T03:33:16.028Z,25.90
2023-02-12T03:35:53.665Z,27.10
2023-02-12T03:38:38.060Z,24.80
2023-02-12T03:41:26.421Z,27.00
2023-02-12T03:44:09.116Z,26.17
2023-02-12T03:47:04.150Z,25.07
2023-02-12T03:49:35.326Z,23.60
2023-02-12T03:52:06.228Z,26.37
2023-02-12T03:54:38.543Z,25.03
2023-02-12T03:57:11.096Z,27.53
2023-02-12T03:59:41.580Z,26.77
2023-02-12T04:02:21.444Z,24.03
2023-02-12T04:04:50.114Z,25.87
2023-02-12T04:07:19.788Z,25.53
2023-02-12T04:09:47.125Z,25.37
2023-02-12T04:12:25.685Z,24.20
2023-02-12T04:14:59.856Z,26.90
2023-02-12T04:17:38.364Z,25.13
2023-02-12T04:20:11.092Z,27.10
2023-02-12T04:22:55.204Z,25.50
2023-02-12T04:25:39.560Z,26.73
2023-02-12T04:28:15.234Z,24.10
2023-02-12T04:30:55.762Z,27.40
2023-02-12T04:33:30.445Z,25.77
2023-02-12T04:36:02.354Z,25.60
2023-02-12T04:38:37.168Z,25.20
2023-02-12T04:41:06.540Z,23.70
2023-02-12T04:43:36.804Z,24.60
2023-02-12T04:46:05.205Z,26.30
2023-02-12T04:48:37.330Z,22.87
2023-02-12T04:51:04.972Z,25.00
2023-02-12T04:53:35.047Z,24.70
2023-02-12T04:56:04.136Z,25.17
2023-02-12T04:58:36.529Z,24.83
2023-02-12T05:01:04.180Z,24.37
2023-02-12T05:03:32.582Z,25.13
2023-02-12T05:06:07.519Z,24.97
2023-02-12T05:08:39.138Z,25.57
2023-02-12T05:11:10.260Z,26.23
2023-02-12T05:13:38.483Z,28.97
2023-02-12T05:16:08.463Z,25.00
2023-02-12T05:18:39.440Z,25.67
2023-02-12T05:21:06.644Z,25.40
2023-02-12T05:23:36.098Z,25.50
2023-02-12T05:26:04.798Z,23.50
2023-02-12T05:28:33.409Z,27.00
2023-02-12T05:31:09.439Z,25.57
2023-02-12T05:33:38.410Z,27.13
2023-02-12T05:36:08.172Z,25.10
2023-02-12T05:38:37.742Z,26.20
2023-02-12T05:41:09.864Z,26.60
2023-02-12T05:43:38.916Z,29.57
2023-02-12T05:46:10.642Z,29.50
2023-02-12T05:48:38.606Z,28.00
2023-02-12T05:53:54.739Z,28.60
2023-02-12T05:56:23.290Z,26.17
2023-02-12T05:58:56.898Z,28.70
2023-02-12T06:01:28.580Z,27.77
2023-02-12T06:03:59.967Z,26.93
2023-02-12T06:06:29.495Z,28.90
2023-02-12T06:08:57.081Z,27.77
2023-02-12T06:11:24.625Z,29.03
2023-02-12T06:13:52.560Z,28.30
2023-02-12T06:16:24.330Z,27.83
2023-02-12T06:18:55.755Z,27.33
2023-02-12T06:21:24.409Z,26.50
2023-02-12T06:23:53.469Z,28.23
2023-02-12T06:26:22.277Z,30.43
2023-02-12T06:28:51.312Z,27.03
2023-02-12T06:31:23.612Z,29.27
2023-02-12T06:33:53.929Z,30.60
2023-02-12T06:36:22.046Z,28.60
2023-02-12T06:38:50.530Z,29.60
2023-02-12T06:41:24.665Z,26.90
2023-02-12T06:43:54.611Z,29.93
2023-02-12T06:46:23.059Z,29.87
2023-02-12T06:48:59.569Z,27.27
2023-02-12T06:51:29.790Z,25.30
2023-02-12T06:53:58.824Z,27.60
2023-02-12T06:56:28.237Z,29.13
2023-02-12T06:58:57.249Z,26.83
2023-02-12T07:01:26.919Z,28.80
2023-02-12T07:03:58.713Z,26.40
2023-02-12T07:06:27.376Z,29.30
2023-02-12T07:08:55.111Z,28.00
2023-02-12T07:11:26.481Z,27.47
2023-02-12T07:13:55.419Z,26.43
2023-02-12T07:16:24.131Z,26.40
2023-02-12T07:18:51.863Z,26.47
2023-02-12T07:21:21.628Z,26.90
2023-02-12T07:23:51.264Z,27.00
2023-02-12T07:26:20.551Z,29.77
2023-02-12T07:28:52.847Z,27.87
2023-02-12T07:31:23.466Z,29.47
2023-02-12T07:33:55.551Z,29.77
2023-02-12T07:36:25.570Z,29.70
2023-02-12T07:38:53.988Z,27.47
2023-02-12T07:41:24.447Z,27.60
2023-02-12T07:44:01.779Z,27.67
2023-02-12T07:46:33.450Z,28.03
2023-02-12T07:49:04.167Z,28.53
2023-02-12T07:51:35.627Z,28.17
2023-02-12T07:54:04.386Z,31.33
2023-02-12T07:56:42.071Z,26.03
2023-02-12T07:59:17.579Z,30.17
2023-02-12T08:01:53.053Z,28.47
2023-02-12T08:04:27.157Z,28.90
2023-02-12T08:06:55.944Z,29.17
2023-02-12T08:09:24.807Z,29.90
2023-02-12T08:11:53.987Z,30.10
2023-02-12T08:14:24.199Z,31.70
2023-02-12T08:16:52.252Z,29.07
2023-02-12T08:19:23.943Z,29.93
2023-02-12T08:21:55.717Z,30.70
2023-02-12T08:24:26.910Z,30.70
2023-02-12T08:26:56.972Z,29.57
2023-02-12T08:29:30.781Z,30.53
2023-02-12T08:32:00.553Z,32.10
2023-02-12T08:34:33.018Z,30.27
2023-02-12T08:37:04.855Z,32.17
2023-02-12T08:39:32.454Z,31.93
2023-02-12T08:42:02.390Z,34.20
2023-02-12T08:44:32.013Z,34.20
2023-02-12T08:47:00.628Z,32.57
2023-02-12T08:49:29.315Z,34.23
2023-02-12T08:51:58.658Z,32.53
2023-02-12T08:54:34.794Z,32.73
2023-02-12T08:57:05.601Z,34.23
2023-02-12T08:59:34.598Z,34.73
2023-02-12T09:02:08.585Z,34.60
2023-02-12T09:04:41.442Z,33.07
2023-02-12T09:07:10.944Z,32.73
2023-02-12T09:09:40.663Z,36.33
2023-02-12T09:12:09.467Z,32.73
2023-02-12T09:14:38.524Z,33.43
2023-02-12T09:17:18.948Z,34.53
2023-02-12T09:19:51.273Z,34.30
2023-02-12T09:22:20.749Z,35.30
2023-02-12T09:24:48.969Z,35.30
2023-02-12T09:27:16.144Z,36.00
2023-02-12T09:29:43.636Z,34.97
2023-02-12T09:32:11.224Z,36.17
2023-02-12T09:34:38.516Z,37.13
2023-02-12T09:37:06.889Z,35.13
2023-02-12T09:39:34.158Z,37.10
2023-02-12T09:42:15.187Z,34.57
2023-02-12T09:44:46.945Z,35.43
2023-02-12T09:47:47.337Z,38.30
2023-02-12T09:50:58.741Z,35.00
2023-02-12T09:53:32.566Z,36.20
2023-02-12T09:56:05.144Z,36.50
2023-02-12T09:58:40.422Z,35.37
2023-02-12T10:01:12.684Z,36.30
2023-02-12T10:03:39.857Z,39.00
2023-02-12T10:06:31.147Z,39.10
2023-02-12T10:09:19.620Z,36.73
2023-02-12T10:12:05.408Z,40.13
2023-02-12T10:14:42.966Z,40.73
2023-02-12T10:17:15.944Z,38.43
2023-02-12T10:20:00.935Z,37.40
2023-02-12T10:22:56.751Z,38.23
2023-02-12T10:25:30.259Z,37.43
2023-02-12T10:27:58.628Z,38.47
2023-02-12T10:30:38.362Z,35.90
2023-02-12T10:33:08.091Z,37.73
2023-02-12T10:35:37.294Z,36.10
2023-02-12T10:38:14.903Z,36.33
2023-02-12T10:40:50.182Z,35.03
2023-02-12T10:43:18.518Z,36.27
2023-02-12T10:45:47.828Z,35.77
2023-02-12T10:48:22.886Z,37.10
2023-02-12T10:51:03.608Z,38.17
2023-02-12T10:53:35.550Z,37.37
2023-02-12T10:56:12.853Z,37.80
2023-02-12T10:58:53.564Z,40.33
2023-02-12T11:01:28.535Z,38.83
2023-02-12T11:03:57.807Z,35.00
2023-02-12T11:06:27.687Z,36.40
2023-02-12T11:08:55.213Z,36.70
2023-02-12T11:11:29.145Z,38.13
2023-02-12T11:14:09.704Z,37.73
2023-02-12T11:16:38.886Z,36.17
2023-02-12T11:19:07.694Z,35.70
2023-02-12T11:21:36.602Z,37.00
2023-02-12T11:24:28.597Z,38.07
2023-02-12T11:27:15.005Z,34.40
2023-02-12T11:29:48.061Z,34.20
2023-02-12T11:32:17.836Z,37.40
2023-02-12T11:35:04.562Z,38.37
2023-02-12T11:37:33.532Z,36.60
2023-02-12T11:40:01.650Z,36.00
2023-02-12T11:42:32.327Z,34.03
2023-02-12T11:45:00.106Z,33.50
2023-02-12T11:47:29.235Z,32.60
2023-02-12T11:50:11.634Z,32.17
2023-02-12T11:52:42.612Z,31.70
2023-02-12T11:55:33.496Z,34.40
2023-02-12T11:58:06.348Z,33.20
2023-02-12T12:00:39.265Z,32.70
2023-02-12T12:03:27.890Z,30.00
2023-02-12T12:05:59.933Z,31.63
2023-02-12T12:08:37.130Z,30.07
2023-02-12T12:11:14.292Z,29.13
2023-02-12T12:13:45.088Z,27.87
2023-02-12T12:16:41.927Z,27.33
2023-02-12T12:19:52.563Z,29.90
2023-02-12T12:22:26.004Z,28.10
2023-02-12T12:25:06.355Z,28.20
2023-02-12T12:28:04.299Z,32.57
2023-02-12T12:30:46.416Z,30.10
2023-02-12T12:33:31.567Z,28.40
2023-02-12T12:36:30.942Z,30.70
2023-02-12T12:39:14.834Z,29.27
2023-02-12T12:42:01.365Z,29.97
2023-02-12T12:44:48.980Z,29.90
2023-02-12T12:47:30.809Z,29.23
2023-02-12T12:50:01.369Z,30.17
2023-02-12T12:53:12.978Z,31.07
2023-02-12T12:56:01.252Z,29.03
2023-02-12T12:58:41.677Z,33.93
2023-02-12T13:01:25.014Z,31.60
2023-02-12T13:04:01.320Z,26.83
2023-02-12T13:06:37.639Z,27.03
2023-02-12T13:09:20.743Z,26.17
2023-02-12T13:12:07.789Z,27.33
2023-02-12T13:14:41.023Z,26.90
2023-02-12T13:17:15.552Z,25.00
2023-02-12T13:19:53.851Z,26.47
2023-02-12T13:22:29.136Z,24.57
2023-02-12T13:25:06.516Z,24.70
2023-02-12T13:27:42.310Z,27.30
2023-02-12T13:30:23.010Z,25.93
2023-02-12T13:33:15.356Z,25.00
2023-02-12T13:35:57.796Z,22.23
2023-02-12T13:38:28.841Z,22.00
2023-02-12T13:41:14.346Z,23.80
2023-02-12T13:44:11.430Z,21.70
2023-02-12T13:46:50.146Z,21.60
2023-02-12T13:49:29.709Z,20.53
2023-02-12T13:52:06.408Z,19.93
2023-02-12T13:54:34.095Z,17.50
2023-02-12T13:57:02.647Z,18.57
2023-02-12T13:59:34.014Z,16.53
2023-02-12T14:02:03.156Z,17.77
2023-02-12T14:04:34.533Z,22.03
2023-02-12T14:07:06.500Z,18.10
2023-02-12T14:10:00.283Z,16.87
2023-02-12T14:12:28.455Z,17.10
2023-02-12T14:15:11.544Z,17.43
2023-02-12T14:17:57.000Z,17.10
2023-02-12T14:20:32.189Z,16.60
2023-02-12T14:22:59.351Z,14.70
2023-02-12T14:25:40.549Z,16.83
2023-02-12T14:28:15.133Z,16.97
2023-02-12T14:30:42.939Z,17.80
2023-02-12T14:33:25.258Z,15.30
2023-02-12T14:36:13.819Z,17.00
2023-02-12T14:38:47.494Z,15.57
2023-02-12T14:41:34.058Z,15.17
2023-02-12T14:44:38.431Z,17.27
2023-02-12T14:47:17.190Z,15.70
2023-02-12T14:49:54.773Z,15.70
2023-02-12T14:52:32.630Z,16.83
2023-02-12T14:55:08.715Z,15.40
2023-02-12T14:57:42.453Z,15.30
2023-02-12T15:00:20.777Z,13.20
2023-02-12T15:02:55.272Z,13.90
2023-02-12T15:05:24.308Z,13.30
2023-02-12T15:07:56.836Z,12.50
2023-02-12T15:10:25.693Z,13.50
2023-02-12T15:13:08.503Z,14.27
2023-02-12T15:15:47.831Z,13.60
2023-02-12T15:18:43.906Z,15.17
2023-02-12T15:21:22.698Z,13.93
2023-02-12T15:24:09.489Z,13.90
2023-02-12T15:26:48.494Z,12.90
2023-02-12T15:29:33.855Z,13.80
2023-02-12T15:32:07.388Z,15.60
2023-02-12T15:34:49.152Z,12.87
2023-02-12T15:37:24.969Z,15.13
2023-02-12T15:39:53.567Z,12.83
2023-02-12T15:42:42.449Z,13.10
2023-02-12T15:45:22.197Z,13.03
2023-02-12T15:48:07.375Z,14.10
2023-02-12T15:50:34.962Z,14.13
2023-02-12T15:53:05.037Z,13.67
2023-02-12T15:55:36.333Z,12.57
2023-02-12T15:58:04.664Z,14.33
2023-02-12T16:00:43.448Z,13.47
2023-02-12T16:03:37.041Z,14.30
2023-02-12T16:06:16.415Z,15.40
2023-02-12T16:08:45.777Z,15.20
2023-02-12T16:11:14.453Z,13.77
2023-02-12T16:13:50.104Z,14.40
2023-02-12T16:16:20.661Z,14.63
2023-02-12T16:19:08.847Z,13.53
2023-02-12T16:21:38.819Z,14.37
2023-02-12T16:24:06.847Z,15.47
2023-02-12T16:26:36.935Z,15.20
2023-02-12T16:29:05.013Z,16.60
2023-02-12T16:31:33.543Z,14.53
2023-02-12T16:34:05.952Z,15.27
2023-02-12T16:36:55.531Z,17.90
2023-02-12T16:39:58.678Z,17.07
2023-02-12T16:42:37.587Z,15.63
2023-02-12T16:45:24.895Z,15.50
2023-02-12T16:47:52.477Z,15.80
2023-02-12T16:50:26.185Z,16.60
2023-02-12T16:53:01.928Z,17.83
2023-02-12T16:55:31.218Z,14.20
2023-02-12T16:57:58.618Z,14.70
2023-02-12T17:00:26.490Z,15.63
2023-02-12T17:03:01.190Z,18.60
2023-02-12T17:05:29.552Z,15.67
2023-02-12T17:07:56.754Z,15.63
2023-02-12T17:10:24.104Z,16.07
2023-02-12T17:12:54.435Z,15.90
2023-02-12T17:15:23.954Z,15.97
2023-02-12T17:17:55.135Z,16.00
2023-02-12T17:20:25.037Z,16.33
2023-02-12T17:22:57.295Z,14.60
2023-02-12T17:25:26.525Z,18.73
2023-02-12T17:27:57.010Z,15.87
2023-02-12T17:30:28.909Z,14.80
2023-02-12T17:32:56.360Z,15.43
2023-02-12T17:35:23.600Z,15.53
2023-02-12T17:37:54.325Z,15.17
2023-02-12T17:40:28.100Z,15.27
2023-02-12T17:43:09.315Z,14.77
2023-02-12T17:45:44.889Z,15.47
2023-02-12T17:48:17.477Z,14.37
2023-02-12T17:51:01.818Z,16.40
2023-02-12T17:53:34.028Z,17.00
2023-02-12T17:56:02.067Z,14.37
2023-02-12T17:58:37.297Z,15.93
2023-02-12T18:01:05.866Z,16.30
2023-02-12T18:03:42.164Z,15.17
2023-02-12T18:09:26.310Z,14.13
2023-02-12T18:11:57.657Z,13.33
2023-02-12T18:14:31.892Z,12.70
2023-02-12T18:17:03.636Z,12.10
2023-02-12T18:19:35.110Z,13.10
2023-02-12T18:22:03.709Z,12.70
2023-02-12T18:24:35.711Z,14.27
2023-02-12T18:27:03.241Z,11.30
2023-02-12T18:29:36.270Z,11.97
2023-02-12T18:32:07.037Z,11.20
2023-02-12T18:34:40.137Z,11.30
2023-02-12T18:37:09.771Z,10.53
2023-02-12T18:39:45.404Z,11.37
2023-02-12T18:42:21.035Z,9.17
2023-02-12T18:44:50.995Z,11.30
2023-02-12T18:47:21.681Z,10.37
2023-02-12T18:49:51.736Z,11.13
2023-02-12T18:52:20.207Z,9.30
2023-02-12T18:54:54.888Z,11.40
2023-02-12T19:00:36.948Z,13.40
2023-02-12T19:03:31.833Z,9.70
2023-02-12T19:07:10.433Z,9.37
2023-02-12T19:12:38.320Z,8.50
2023-02-12T19:15:08.944Z,10.57
2023-02-12T19:17:58.574Z,10.80
2023-02-12T19:20:28.442Z,9.57
2023-02-12T19:22:57.489Z,8.80
2023-02-12T19:25:32.389Z,9.83
2023-02-12T19:28:00.868Z,9.77
2023-02-12T19:30:31.385Z,8.53
2023-02-12T19:32:59.727Z,8.73
2023-02-12T19:35:27.214Z,9.60
2023-02-12T19:37:56.792Z,9.37
2023-02-12T19:40:25.853Z,9.33
2023-02-12T19:42:57.091Z,9.07
2023-02-12T19:45:27.448Z,11.07
2023-02-12T19:47:57.144Z,9.33
2023-02-12T19:50:25.802Z,10.70
2023-02-12T19:52:55.488Z,10.60
2023-02-12T19:55:22.829Z,10.57
2023-02-12T19:57:51.745Z,10.07
2023-02-12T20:00:19.542Z,10.03
2023-02-12T20:02:49.337Z,9.83
2023-02-12T20:05:17.631Z,11.30
2023-02-12T20:07:46.191Z,10.70
2023-02-12T20:10:21.355Z,10.60
2023-02-12T20:12:52.076Z,9.00
2023-02-12T20:15:23.641Z,9.17
2023-02-12T20:17:52.307Z,9.07
2023-02-12T20:20:21.312Z,9.20
2023-02-12T20:22:52.346Z,10.37
2023-02-12T20:25:22.936Z,9.23
2023-02-12T20:27:51.277Z,9.90
2023-02-12T20:30:21.316Z,11.03
2023-02-12T20:32:51.585Z,10.77
2023-02-12T20:35:20.147Z,9.87
2023-02-12T20:37:49.597Z,10.57
2023-02-12T20:40:18.421Z,10.23
2023-02-12T20:42:47.839Z,11.90
2023-02-12T20:45:17.263Z,10.37
2023-02-12T20:47:49.054Z,10.93
2023-02-12T20:50:18.557Z,12.70
2023-02-12T20:52:54.189Z,12.30
2023-02-12T20:55:25.335Z,12.00
2023-02-12T20:58:00.155Z,12.03
2023-02-12T21:00:28.259Z,11.17
2023-02-12T21:03:00.304Z,13.50
2023-02-12T21:05:28.023Z,11.90
2023-02-12T21:07:58.825Z,12.40
2023-02-12T21:10:27.696Z,13.57
2023-02-12T21:12:55.938Z,11.50
2023-02-12T21:15:26.415Z,12.27
2023-02-12T21:17:53.975Z,14.03
2023-02-12T21:20:21.480Z,11.67
2023-02-12T21:22:50.230Z,12.60
2023-02-12T21:25:22.866Z,13.57
2023-02-12T21:27:57.715Z,14.53
2023-02-12T21:30:27.944Z,13.97
2023-02-12T21:33:04.749Z,14.50
2023-02-12T21:35:38.858Z,13.77
2023-02-12T21:38:06.329Z,11.83
2023-02-12T21:40:35.701Z,12.50
2023-02-12T21:43:03.322Z,11.97
2023-02-12T21:46:06.339Z,11.83
2023-02-12T21:48:34.367Z,13.00
2023-02-12T21:54:56.156Z,10.97
2023-02-12T21:57:50.755Z,11.23
2023-02-12T22:03:02.179Z,12.70
2023-02-12T22:05:31.601Z,12.30
2023-02-12T22:08:00.605Z,12.13
2023-02-12T22:10:30.128Z,11.20
2023-02-12T22:13:04.393Z,11.37
2023-02-12T22:15:44.629Z,10.80
2023-02-12T22:18:18.632Z,10.40
2023-02-12T22:20:47.838Z,10.67
2023-02-12T22:23:23.385Z,10.37
2023-02-12T22:25:56.484Z,10.10
2023-02-12T22:28:25.803Z,9.50
2023-02-12T22:30:56.560Z,9.00
2023-02-12T22:33:24.291Z,7.83
2023-02-12T22:35:52.307Z,8.20
2023-02-12T22:38:21.538Z,8.37
2023-02-12T22:40:52.411Z,8.40
2023-02-12T22:46:52.427Z,8.50
2023-02-12T22:49:22.706Z,8.03
2023-02-12T22:51:53.370Z,7.27
2023-02-12T22:54:25.646Z,8.67
2023-02-12T22:56:53.377Z,7.50
2023-02-12T22:59:23.621Z,8.00
2023-02-12T23:01:52.903Z,7.53
2023-02-12T23:04:20.921Z,10.53
2023-02-12T23:06:48.841Z,8.47
2023-02-12T23:09:19.107Z,8.43
2023-02-12T23:11:48.594Z,7.90
2023-02-12T23:14:16.719Z,8.60
2023-02-12T23:16:45.965Z,8.60
2023-02-12T23:19:14.898Z,9.23
2023-02-12T23:21:43.541Z,7.70
2023-02-12T23:24:15.411Z,9.07
2023-02-12T23:26:44.530Z,8.27
2023-02-12T23:29:44.664Z,8.63
2023-02-12T23:32:20.097Z,8.27
2023-02-12T23:34:48.542Z,8.60
2023-02-12T23:37:21.415Z,7.80
2023-02-12T23:39:55.508Z,8.10
2023-02-12T23:42:23.971Z,8.73
2023-02-12T23:44:54.607Z,9.20
2023-02-12T23:47:24.296Z,8.63
2023-02-12T23:49:53.959Z,8.60
2023-02-12T23:52:23.966Z,8.57
2023-02-12T23:54:52.244Z,8.67
2023-02-12T23:57:20.513Z,9.00
2023-02-12T23:59:49.653Z,8.50
